sensor_id;sensor_type;location;lat;lon;timestamp;P1;durP1;ratioP1;P2;durP2;ratioP2
32130;SDS011;18639;50.716;7.086;2023-04-15T00:00:36;1.90;;;0.60;;
32130;SDS011;18639;50.716;7.086;2023-04-15T00:03:01;0.60;;;0.60;;
32130;SDS011;18639;50.716;7.086;2023-04-15T00:05:28;0.88;;;0.55;;
32130;SDS011;18639;50.716;7.086;2023-04-15T00:07:54;0.77;;;0.60;;
32130;SDS011;18639;50.716;7.086;2023-04-15T00:10:19;0.95;;;0.50;;
32130;SDS011;18639;50.716;7.086;2023-04-15T00:12:44;0.50;;;0.50;;
32130;SDS011;18639;50.716;7.086;2023-04-15T00:15:10;1.08;;;0.50;;
32130;SDS011;18639;50.716;7.086;2023-04-15T00:17:36;0.52;;;0.43;;
32130;SDS011;18639;50.716;7.086;2023-04-15T00:20:03;1.40;;;0.70;;
32130;SDS011;18639;50.716;7.086;2023-04-15T00:22:30;1.05;;;0.50;;
32130;SDS011;18639;50.716;7.086;2023-04-15T00:24:56;0.68;;;0.50;;
32130;SDS011;18639;50.716;7.086;2023-04-15T00:27:21;0.73;;;0.60;;
32130;SDS011;18639;50.716;7.086;2023-04-15T00:29:46;0.50;;;0.50;;
32130;SDS011;18639;50.716;7.086;2023-04-15T00:32:12;2.00;;;0.70;;
32130;SDS011;18639;50.716;7.086;2023-04-15T00:34:37;0.68;;;0.63;;
32130;SDS011;18639;50.716;7.086;2023-04-15T00:37:02;0.73;;;0.55;;
32130;SDS011;18639;50.716;7.086;2023-04-15T00:39:28;1.02;;;0.70;;
32130;SDS011;18639;50.716;7.086;2023-04-15T00:41:53;1.08;;;0.68;;
32130;SDS011;18639;50.716;7.086;2023-04-15T00:44:19;1.52;;;0.77;;
32130;SDS011;18639;50.716;7.086;2023-04-15T00:46:45;2.83;;;0.73;;
32130;SDS011;18639;50.716;7.086;2023-04-15T00:49:11;1.70;;;0.60;;
32130;SDS011;18639;50.716;7.086;2023-04-15T00:51:37;1.63;;;0.80;;
32130;SDS011;18639;50.716;7.086;2023-04-15T00:54:02;1.00;;;0.70;;
32130;SDS011;18639;50.716;7.086;2023-04-15T00:56:28;1.75;;;0.80;;
32130;SDS011;18639;50.716;7.086;2023-04-15T00:58:54;1.63;;;0.80;;
32130;SDS011;18639;50.716;7.086;2023-04-15T01:01:21;1.27;;;0.80;;
32130;SDS011;18639;50.716;7.086;2023-04-15T01:03:47;1.73;;;0.93;;
32130;SDS011;18639;50.716;7.086;2023-04-15T01:06:14;2.58;;;0.90;;
32130;SDS011;18639;50.716;7.086;2023-04-15T01:08:40;1.48;;;0.70;;
32130;SDS011;18639;50.716;7.086;2023-04-15T01:11:06;1.00;;;0.70;;
32130;SDS011;18639;50.716;7.086;2023-04-15T01:13:32;0.85;;;0.73;;
32130;SDS011;18639;50.716;7.086;2023-04-15T01:15:58;0.65;;;0.63;;
32130;SDS011;18639;50.716;7.086;2023-04-15T01:18:24;1.23;;;0.60;;
32130;SDS011;18639;50.716;7.086;2023-04-15T01:20:50;0.52;;;0.52;;
32130;SDS011;18639;50.716;7.086;2023-04-15T01:23:15;1.23;;;0.65;;
32130;SDS011;18639;50.716;7.086;2023-04-15T01:25:41;0.93;;;0.70;;
32130;SDS011;18639;50.716;7.086;2023-04-15T01:28:08;0.60;;;0.60;;
32130;SDS011;18639;50.716;7.086;2023-04-15T01:30:34;0.70;;;0.65;;
32130;SDS011;18639;50.716;7.086;2023-04-15T01:33:00;2.08;;;0.85;;
32130;SDS011;18639;50.716;7.086;2023-04-15T01:35:25;0.65;;;0.52;;
32130;SDS011;18639;50.716;7.086;2023-04-15T01:37:52;1.10;;;0.60;;
32130;SDS011;18639;50.716;7.086;2023-04-15T01:40:18;1.10;;;0.60;;
32130;SDS011;18639;50.716;7.086;2023-04-15T01:42:44;0.60;;;0.60;;
32130;SDS011;18639;50.716;7.086;2023-04-15T01:45:09;2.50;;;0.70;;
32130;SDS011;18639;50.716;7.086;2023-04-15T01:47:35;0.73;;;0.70;;
32130;SDS011;18639;50.716;7.086;2023-04-15T01:50:00;0.60;;;0.60;;
32130;SDS011;18639;50.716;7.086;2023-04-15T01:52:26;0.82;;;0.50;;
32130;SDS011;18639;50.716;7.086;2023-04-15T01:54:51;1.75;;;0.70;;
32130;SDS011;18639;50.716;7.086;2023-04-15T01:57:16;1.52;;;0.50;;
32130;SDS011;18639;50.716;7.086;2023-04-15T01:59:41;1.95;;;0.70;;
32130;SDS011;18639;50.716;7.086;2023-04-15T02:02:07;0.75;;;0.70;;
32130;SDS011;18639;50.716;7.086;2023-04-15T02:04:32;0.77;;;0.60;;
32130;SDS011;18639;50.716;7.086;2023-04-15T02:06:58;1.20;;;0.77;;
32130;SDS011;18639;50.716;7.086;2023-04-15T02:09:23;1.17;;;0.60;;
32130;SDS011;18639;50.716;7.086;2023-04-15T02:11:49;2.50;;;0.70;;
32130;SDS011;18639;50.716;7.086;2023-04-15T02:14:15;0.90;;;0.65;;
32130;SDS011;18639;50.716;7.086;2023-04-15T02:16:41;0.75;;;0.50;;
32130;SDS011;18639;50.716;7.086;2023-04-15T02:19:06;3.15;;;0.65;;
32130;SDS011;18639;50.716;7.086;2023-04-15T02:21:31;1.77;;;0.95;;
32130;SDS011;18639;50.716;7.086;2023-04-15T02:23:57;0.63;;;0.60;;
32130;SDS011;18639;50.716;7.086;2023-04-15T02:26:22;1.23;;;0.77;;
32130;SDS011;18639;50.716;7.086;2023-04-15T02:28:49;1.70;;;0.75;;
32130;SDS011;18639;50.716;7.086;2023-04-15T02:31:15;0.45;;;0.45;;
32130;SDS011;18639;50.716;7.086;2023-04-15T02:33:40;1.23;;;0.65;;
32130;SDS011;18639;50.716;7.086;2023-04-15T02:36:06;2.15;;;0.50;;
32130;SDS011;18639;50.716;7.086;2023-04-15T02:38:32;0.50;;;0.50;;
32130;SDS011;18639;50.716;7.086;2023-04-15T02:40:57;0.90;;;0.60;;
32130;SDS011;18639;50.716;7.086;2023-04-15T02:43:23;0.60;;;0.60;;
32130;SDS011;18639;50.716;7.086;2023-04-15T02:45:48;0.57;;;0.50;;
32130;SDS011;18639;50.716;7.086;2023-04-15T02:48:14;0.60;;;0.57;;
32130;SDS011;18639;50.716;7.086;2023-04-15T02:50:41;0.52;;;0.43;;
32130;SDS011;18639;50.716;7.086;2023-04-15T02:53:07;2.30;;;0.98;;
32130;SDS011;18639;50.716;7.086;2023-04-15T02:55:32;0.98;;;0.50;;
32130;SDS011;18639;50.716;7.086;2023-04-15T02:57:57;1.63;;;0.75;;
32130;SDS011;18639;50.716;7.086;2023-04-15T03:00:24;1.02;;;0.70;;
32130;SDS011;18639;50.716;7.086;2023-04-15T03:02:50;0.75;;;0.52;;
32130;SDS011;18639;50.716;7.086;2023-04-15T03:05:20;1.13;;;0.50;;
32130;SDS011;18639;50.716;7.086;2023-04-15T03:07:48;1.17;;;0.40;;
32130;SDS011;18639;50.716;7.086;2023-04-15T03:10:14;0.40;;;0.40;;
32130;SDS011;18639;50.716;7.086;2023-04-15T03:12:39;1.58;;;0.70;;
32130;SDS011;18639;50.716;7.086;2023-04-15T03:15:05;1.45;;;0.60;;
32130;SDS011;18639;50.716;7.086;2023-04-15T03:17:30;1.42;;;0.50;;
32130;SDS011;18639;50.716;7.086;2023-04-15T03:19:56;0.50;;;0.50;;
32130;SDS011;18639;50.716;7.086;2023-04-15T03:22:21;0.40;;;0.40;;
32130;SDS011;18639;50.716;7.086;2023-04-15T03:24:46;0.50;;;0.50;;
32130;SDS011;18639;50.716;7.086;2023-04-15T03:27:12;0.90;;;0.45;;
32130;SDS011;18639;50.716;7.086;2023-04-15T03:29:37;1.92;;;0.60;;
32130;SDS011;18639;50.716;7.086;2023-04-15T03:32:02;1.83;;;0.75;;
32130;SDS011;18639;50.716;7.086;2023-04-15T03:34:27;0.85;;;0.63;;
32130;SDS011;18639;50.716;7.086;2023-04-15T03:36:53;0.60;;;0.60;;
32130;SDS011;18639;50.716;7.086;2023-04-15T03:39:18;2.17;;;0.70;;
32130;SDS011;18639;50.716;7.086;2023-04-15T03:41:43;1.75;;;1.08;;
32130;SDS011;18639;50.716;7.086;2023-04-15T03:44:09;1.35;;;0.70;;
32130;SDS011;18639;50.716;7.086;2023-04-15T03:46:34;1.85;;;0.77;;
32130;SDS011;18639;50.716;7.086;2023-04-15T03:49:00;0.68;;;0.68;;
32130;SDS011;18639;50.716;7.086;2023-04-15T03:51:26;0.70;;;0.70;;
32130;SDS011;18639;50.716;7.086;2023-04-15T03:53:51;0.63;;;0.63;;
32130;SDS011;18639;50.716;7.086;2023-04-15T03:56:16;0.95;;;0.68;;
32130;SDS011;18639;50.716;7.086;2023-04-15T03:58:41;1.10;;;0.40;;
32130;SDS011;18639;50.716;7.086;2023-04-15T04:01:07;0.73;;;0.50;;
32130;SDS011;18639;50.716;7.086;2023-04-15T04:03:32;0.73;;;0.68;;
32130;SDS011;18639;50.716;7.086;2023-04-15T04:05:57;2.13;;;0.90;;
32130;SDS011;18639;50.716;7.086;2023-04-15T04:08:23;2.20;;;0.73;;
32130;SDS011;18639;50.716;7.086;2023-04-15T04:10:49;1.13;;;0.65;;
32130;SDS011;18639;50.716;7.086;2023-04-15T04:13:14;0.75;;;0.50;;
32130;SDS011;18639;50.716;7.086;2023-04-15T04:15:40;2.75;;;0.60;;
32130;SDS011;18639;50.716;7.086;2023-04-15T04:18:05;5.82;;;0.90;;
32130;SDS011;18639;50.716;7.086;2023-04-15T04:20:31;1.00;;;0.70;;
32130;SDS011;18639;50.716;7.086;2023-04-15T04:22:56;0.88;;;0.60;;
32130;SDS011;18639;50.716;7.086;2023-04-15T04:25:22;1.20;;;0.55;;
32130;SDS011;18639;50.716;7.086;2023-04-15T04:27:48;0.80;;;0.55;;
32130;SDS011;18639;50.716;7.086;2023-04-15T04:30:14;0.90;;;0.60;;
32130;SDS011;18639;50.716;7.086;2023-04-15T04:32:39;2.17;;;0.70;;
32130;SDS011;18639;50.716;7.086;2023-04-15T04:35:04;2.92;;;0.50;;
32130;SDS011;18639;50.716;7.086;2023-04-15T04:37:31;1.13;;;0.75;;
32130;SDS011;18639;50.716;7.086;2023-04-15T04:39:56;0.77;;;0.55;;
32130;SDS011;18639;50.716;7.086;2023-04-15T04:42:21;1.42;;;0.50;;
32130;SDS011;18639;50.716;7.086;2023-04-15T04:44:46;2.35;;;0.85;;
32130;SDS011;18639;50.716;7.086;2023-04-15T04:47:12;1.17;;;0.50;;
32130;SDS011;18639;50.716;7.086;2023-04-15T04:49:37;1.85;;;0.80;;
32130;SDS011;18639;50.716;7.086;2023-04-15T04:52:03;0.70;;;0.65;;
32130;SDS011;18639;50.716;7.086;2023-04-15T04:54:28;2.25;;;0.77;;
32130;SDS011;18639;50.716;7.086;2023-04-15T04:56:55;1.65;;;0.60;;
32130;SDS011;18639;50.716;7.086;2023-04-15T04:59:21;2.08;;;0.80;;
32130;SDS011;18639;50.716;7.086;2023-04-15T05:01:47;0.80;;;0.60;;
32130;SDS011;18639;50.716;7.086;2023-04-15T05:04:12;8.50;;;0.68;;
32130;SDS011;18639;50.716;7.086;2023-04-15T05:06:38;9.02;;;0.85;;
32130;SDS011;18639;50.716;7.086;2023-04-15T05:09:03;0.70;;;0.70;;
32130;SDS011;18639;50.716;7.086;2023-04-15T05:11:28;2.70;;;0.50;;
32130;SDS011;18639;50.716;7.086;2023-04-15T05:13:53;0.47;;;0.47;;
32130;SDS011;18639;50.716;7.086;2023-04-15T05:16:19;0.57;;;0.52;;
32130;SDS011;18639;50.716;7.086;2023-04-15T05:18:44;0.45;;;0.45;;
32130;SDS011;18639;50.716;7.086;2023-04-15T05:21:10;1.23;;;0.52;;
32130;SDS011;18639;50.716;7.086;2023-04-15T05:23:35;0.65;;;0.50;;
32130;SDS011;18639;50.716;7.086;2023-04-15T05:26:01;0.85;;;0.50;;
32130;SDS011;18639;50.716;7.086;2023-04-15T05:28:27;3.38;;;0.85;;
32130;SDS011;18639;50.716;7.086;2023-04-15T05:30:53;0.47;;;0.47;;
32130;SDS011;18639;50.716;7.086;2023-04-15T05:33:18;2.50;;;0.60;;
32130;SDS011;18639;50.716;7.086;2023-04-15T05:35:43;1.52;;;0.68;;
32130;SDS011;18639;50.716;7.086;2023-04-15T05:38:09;0.68;;;0.65;;
32130;SDS011;18639;50.716;7.086;2023-04-15T05:40:34;1.67;;;0.82;;
32130;SDS011;18639;50.716;7.086;2023-04-15T05:43:00;0.80;;;0.60;;
32130;SDS011;18639;50.716;7.086;2023-04-15T05:45:26;1.25;;;0.63;;
32130;SDS011;18639;50.716;7.086;2023-04-15T05:47:51;2.03;;;0.55;;
32130;SDS011;18639;50.716;7.086;2023-04-15T05:50:18;0.75;;;0.68;;
32130;SDS011;18639;50.716;7.086;2023-04-15T05:52:43;1.95;;;1.25;;
32130;SDS011;18639;50.716;7.086;2023-04-15T05:55:10;3.72;;;1.13;;
32130;SDS011;18639;50.716;7.086;2023-04-15T05:57:35;3.53;;;0.63;;
32130;SDS011;18639;50.716;7.086;2023-04-15T06:00:01;1.77;;;0.70;;
32130;SDS011;18639;50.716;7.086;2023-04-15T06:02:29;0.95;;;0.70;;
32130;SDS011;18639;50.716;7.086;2023-04-15T06:04:55;0.80;;;0.50;;
32130;SDS011;18639;50.716;7.086;2023-04-15T06:07:21;2.22;;;0.85;;
32130;SDS011;18639;50.716;7.086;2023-04-15T06:09:46;1.85;;;1.10;;
32130;SDS011;18639;50.716;7.086;2023-04-15T06:12:12;0.82;;;0.70;;
32130;SDS011;18639;50.716;7.086;2023-04-15T06:14:37;5.78;;;0.85;;
32130;SDS011;18639;50.716;7.086;2023-04-15T06:17:04;2.38;;;0.80;;
32130;SDS011;18639;50.716;7.086;2023-04-15T06:19:29;3.55;;;0.55;;
32130;SDS011;18639;50.716;7.086;2023-04-15T06:21:55;0.50;;;0.50;;
32130;SDS011;18639;50.716;7.086;2023-04-15T06:24:22;2.13;;;0.60;;
32130;SDS011;18639;50.716;7.086;2023-04-15T06:26:47;2.38;;;0.88;;
32130;SDS011;18639;50.716;7.086;2023-04-15T06:29:12;1.38;;;0.82;;
32130;SDS011;18639;50.716;7.086;2023-04-15T06:31:38;1.33;;;1.08;;
32130;SDS011;18639;50.716;7.086;2023-04-15T06:34:03;1.45;;;0.88;;
32130;SDS011;18639;50.716;7.086;2023-04-15T06:36:29;4.18;;;1.13;;
32130;SDS011;18639;50.716;7.086;2023-04-15T06:38:54;4.22;;;0.90;;
32130;SDS011;18639;50.716;7.086;2023-04-15T06:41:21;2.63;;;1.20;;
32130;SDS011;18639;50.716;7.086;2023-04-15T06:43:46;1.30;;;1.02;;
32130;SDS011;18639;50.716;7.086;2023-04-15T06:46:14;1.05;;;0.75;;
32130;SDS011;18639;50.716;7.086;2023-04-15T06:48:40;2.35;;;1.40;;
32130;SDS011;18639;50.716;7.086;2023-04-15T06:51:05;2.25;;;1.33;;
32130;SDS011;18639;50.716;7.086;2023-04-15T06:53:30;2.17;;;1.10;;
32130;SDS011;18639;50.716;7.086;2023-04-15T06:55:56;1.42;;;1.02;;
32130;SDS011;18639;50.716;7.086;2023-04-15T06:58:21;6.53;;;1.20;;
32130;SDS011;18639;50.716;7.086;2023-04-15T07:00:47;2.35;;;1.23;;
32130;SDS011;18639;50.716;7.086;2023-04-15T07:03:13;2.90;;;1.40;;
32130;SDS011;18639;50.716;7.086;2023-04-15T07:05:39;2.38;;;1.35;;
32130;SDS011;18639;50.716;7.086;2023-04-15T07:08:05;3.25;;;1.30;;
32130;SDS011;18639;50.716;7.086;2023-04-15T07:10:32;3.03;;;1.40;;
32130;SDS011;18639;50.716;7.086;2023-04-15T07:12:57;5.05;;;1.80;;
32130;SDS011;18639;50.716;7.086;2023-04-15T07:15:23;3.15;;;1.42;;
32130;SDS011;18639;50.716;7.086;2023-04-15T07:17:48;2.78;;;1.40;;
32130;SDS011;18639;50.716;7.086;2023-04-15T07:20:14;3.17;;;1.42;;
32130;SDS011;18639;50.716;7.086;2023-04-15T07:22:39;2.65;;;1.50;;
32130;SDS011;18639;50.716;7.086;2023-04-15T07:25:05;3.78;;;1.70;;
32130;SDS011;18639;50.716;7.086;2023-04-15T07:27:31;6.60;;;1.90;;
32130;SDS011;18639;50.716;7.086;2023-04-15T07:29:56;5.05;;;1.80;;
32130;SDS011;18639;50.716;7.086;2023-04-15T07:32:22;3.80;;;1.67;;
32130;SDS011;18639;50.716;7.086;2023-04-15T07:34:47;3.50;;;1.65;;
32130;SDS011;18639;50.716;7.086;2023-04-15T07:37:13;3.30;;;1.58;;
32130;SDS011;18639;50.716;7.086;2023-04-15T07:39:39;3.53;;;1.48;;
32130;SDS011;18639;50.716;7.086;2023-04-15T07:42:04;4.57;;;1.90;;
32130;SDS011;18639;50.716;7.086;2023-04-15T07:44:29;8.32;;;2.13;;
32130;SDS011;18639;50.716;7.086;2023-04-15T07:46:55;4.78;;;1.48;;
32130;SDS011;18639;50.716;7.086;2023-04-15T07:49:21;4.18;;;1.85;;
32130;SDS011;18639;50.716;7.086;2023-04-15T07:51:46;3.05;;;1.52;;
32130;SDS011;18639;50.716;7.086;2023-04-15T07:54:13;3.30;;;1.75;;
32130;SDS011;18639;50.716;7.086;2023-04-15T07:56:38;3.97;;;1.70;;
32130;SDS011;18639;50.716;7.086;2023-04-15T07:59:04;4.35;;;1.77;;
32130;SDS011;18639;50.716;7.086;2023-04-15T08:01:30;4.25;;;1.90;;
32130;SDS011;18639;50.716;7.086;2023-04-15T08:03:56;4.57;;;1.58;;
32130;SDS011;18639;50.716;7.086;2023-04-15T08:06:22;4.85;;;1.90;;
32130;SDS011;18639;50.716;7.086;2023-04-15T08:08:48;4.70;;;1.63;;
32130;SDS011;18639;50.716;7.086;2023-04-15T08:11:13;4.32;;;1.77;;
32130;SDS011;18639;50.716;7.086;2023-04-15T08:13:38;6.03;;;1.80;;
32130;SDS011;18639;50.716;7.086;2023-04-15T08:16:17;3.50;;;1.88;;
32130;SDS011;18639;50.716;7.086;2023-04-15T08:18:45;3.30;;;1.77;;
32130;SDS011;18639;50.716;7.086;2023-04-15T08:21:11;3.83;;;2.05;;
32130;SDS011;18639;50.716;7.086;2023-04-15T08:23:37;4.68;;;2.25;;
32130;SDS011;18639;50.716;7.086;2023-04-15T08:26:03;4.25;;;1.90;;
32130;SDS011;18639;50.716;7.086;2023-04-15T08:28:28;4.95;;;1.92;;
32130;SDS011;18639;50.716;7.086;2023-04-15T08:30:54;4.97;;;2.00;;
32130;SDS011;18639;50.716;7.086;2023-04-15T08:33:19;3.30;;;1.92;;
32130;SDS011;18639;50.716;7.086;2023-04-15T08:35:44;7.10;;;1.85;;
32130;SDS011;18639;50.716;7.086;2023-04-15T08:38:10;3.47;;;1.70;;
32130;SDS011;18639;50.716;7.086;2023-04-15T08:40:42;5.10;;;2.20;;
32130;SDS011;18639;50.716;7.086;2023-04-15T08:43:10;2.72;;;1.63;;
32130;SDS011;18639;50.716;7.086;2023-04-15T08:45:42;3.92;;;2.03;;
32130;SDS011;18639;50.716;7.086;2023-04-15T08:48:09;3.85;;;1.83;;
32130;SDS011;18639;50.716;7.086;2023-04-15T08:50:40;6.55;;;2.17;;
32130;SDS011;18639;50.716;7.086;2023-04-15T08:53:06;3.72;;;2.13;;
32130;SDS011;18639;50.716;7.086;2023-04-15T08:55:32;9.07;;;1.90;;
32130;SDS011;18639;50.716;7.086;2023-04-15T08:58:03;5.10;;;1.77;;
32130;SDS011;18639;50.716;7.086;2023-04-15T09:00:29;3.92;;;1.95;;
32130;SDS011;18639;50.716;7.086;2023-04-15T09:02:55;5.40;;;2.17;;
32130;SDS011;18639;50.716;7.086;2023-04-15T09:05:20;6.05;;;1.98;;
32130;SDS011;18639;50.716;7.086;2023-04-15T09:07:46;3.53;;;1.77;;
32130;SDS011;18639;50.716;7.086;2023-04-15T09:10:12;4.85;;;2.13;;
32130;SDS011;18639;50.716;7.086;2023-04-15T09:12:38;4.22;;;1.40;;
32130;SDS011;18639;50.716;7.086;2023-04-15T09:15:03;5.32;;;1.55;;
32130;SDS011;18639;50.716;7.086;2023-04-15T09:17:29;4.85;;;1.83;;
32130;SDS011;18639;50.716;7.086;2023-04-15T09:20:10;2.80;;;1.65;;
32130;SDS011;18639;50.716;7.086;2023-04-15T09:22:37;3.35;;;1.80;;
32130;SDS011;18639;50.716;7.086;2023-04-15T09:25:06;3.60;;;1.52;;
32130;SDS011;18639;50.716;7.086;2023-04-15T09:27:54;3.42;;;1.73;;
32130;SDS011;18639;50.716;7.086;2023-04-15T09:30:21;2.28;;;1.30;;
32130;SDS011;18639;50.716;7.086;2023-04-15T09:32:50;3.83;;;1.23;;
32130;SDS011;18639;50.716;7.086;2023-04-15T09:35:22;0.77;;;0.60;;
32130;SDS011;18639;50.716;7.086;2023-04-15T09:37:49;0.95;;;0.60;;
32130;SDS011;18639;50.716;7.086;2023-04-15T09:40:34;1.98;;;0.70;;
32130;SDS011;18639;50.716;7.086;2023-04-15T09:43:01;0.57;;;0.50;;
32130;SDS011;18639;50.716;7.086;2023-04-15T09:45:27;0.73;;;0.50;;
32130;SDS011;18639;50.716;7.086;2023-04-15T09:47:53;1.17;;;0.60;;
32130;SDS011;18639;50.716;7.086;2023-04-15T09:50:20;1.25;;;0.65;;
32130;SDS011;18639;50.716;7.086;2023-04-15T09:52:46;2.58;;;0.80;;
32130;SDS011;18639;50.716;7.086;2023-04-15T09:55:12;1.55;;;0.73;;
32130;SDS011;18639;50.716;7.086;2023-04-15T09:57:39;1.08;;;0.70;;
32130;SDS011;18639;50.716;7.086;2023-04-15T10:00:13;0.65;;;0.60;;
32130;SDS011;18639;50.716;7.086;2023-04-15T10:02:39;1.30;;;0.68;;
32130;SDS011;18639;50.716;7.086;2023-04-15T10:05:06;1.33;;;0.57;;
32130;SDS011;18639;50.716;7.086;2023-04-15T10:07:34;0.65;;;0.60;;
32130;SDS011;18639;50.716;7.086;2023-04-15T10:10:00;1.45;;;0.80;;
32130;SDS011;18639;50.716;7.086;2023-04-15T10:12:26;0.70;;;0.60;;
32130;SDS011;18639;50.716;7.086;2023-04-15T10:14:55;0.85;;;0.60;;
32130;SDS011;18639;50.716;7.086;2023-04-15T10:17:23;0.47;;;0.40;;
32130;SDS011;18639;50.716;7.086;2023-04-15T10:19:52;1.33;;;0.80;;
32130;SDS011;18639;50.716;7.086;2023-04-15T10:22:18;0.50;;;0.40;;
32130;SDS011;18639;50.716;7.086;2023-04-15T10:24:44;1.08;;;0.60;;
32130;SDS011;18639;50.716;7.086;2023-04-15T10:27:11;1.15;;;0.75;;
32130;SDS011;18639;50.716;7.086;2023-04-15T10:29:36;0.52;;;0.52;;
32130;SDS011;18639;50.716;7.086;2023-04-15T10:32:01;0.40;;;0.40;;
32130;SDS011;18639;50.716;7.086;2023-04-15T10:34:27;1.23;;;0.50;;
32130;SDS011;18639;50.716;7.086;2023-04-15T10:36:55;0.85;;;0.60;;
32130;SDS011;18639;50.716;7.086;2023-04-15T10:39:41;1.58;;;1.10;;
32130;SDS011;18639;50.716;7.086;2023-04-15T10:42:12;0.60;;;0.60;;
32130;SDS011;18639;50.716;7.086;2023-04-15T10:44:42;0.57;;;0.57;;
32130;SDS011;18639;50.716;7.086;2023-04-15T10:47:13;1.30;;;0.80;;
32130;SDS011;18639;50.716;7.086;2023-04-15T10:49:44;0.93;;;0.65;;
32130;SDS011;18639;50.716;7.086;2023-04-15T10:52:11;1.92;;;0.80;;
32130;SDS011;18639;50.716;7.086;2023-04-15T10:54:36;1.10;;;0.68;;
32130;SDS011;18639;50.716;7.086;2023-04-15T10:59:29;0.53;;;0.50;;
32130;SDS011;18639;50.716;7.086;2023-04-15T11:01:59;0.98;;;0.52;;
32130;SDS011;18639;50.716;7.086;2023-04-15T11:12:41;1.75;;;1.02;;
32130;SDS011;18639;50.716;7.086;2023-04-15T11:17:56;1.10;;;0.80;;
32130;SDS011;18639;50.716;7.086;2023-04-15T11:20:22;1.65;;;0.90;;
32130;SDS011;18639;50.716;7.086;2023-04-15T11:22:48;1.27;;;0.93;;
32130;SDS011;18639;50.716;7.086;2023-04-15T11:25:24;2.17;;;1.05;;
32130;SDS011;18639;50.716;7.086;2023-04-15T11:27:52;2.28;;;1.15;;
32130;SDS011;18639;50.716;7.086;2023-04-15T11:30:19;2.17;;;1.13;;
32130;SDS011;18639;50.716;7.086;2023-04-15T11:32:46;2.72;;;1.30;;
32130;SDS011;18639;50.716;7.086;2023-04-15T11:35:15;3.85;;;1.30;;
32130;SDS011;18639;50.716;7.086;2023-04-15T11:37:44;1.45;;;1.10;;
32130;SDS011;18639;50.716;7.086;2023-04-15T11:40:10;1.98;;;1.02;;
32130;SDS011;18639;50.716;7.086;2023-04-15T11:42:36;2.33;;;1.25;;
32130;SDS011;18639;50.716;7.086;2023-04-15T11:45:08;2.42;;;1.38;;
32130;SDS011;18639;50.716;7.086;2023-04-15T11:47:40;1.75;;;1.00;;
32130;SDS011;18639;50.716;7.086;2023-04-15T11:50:13;1.40;;;1.00;;
32130;SDS011;18639;50.716;7.086;2023-04-15T11:52:39;2.70;;;1.27;;
32130;SDS011;18639;50.716;7.086;2023-04-15T11:55:05;2.63;;;1.42;;
32130;SDS011;18639;50.716;7.086;2023-04-15T11:57:31;1.25;;;1.05;;
32130;SDS011;18639;50.716;7.086;2023-04-15T11:59:56;1.83;;;1.27;;
32130;SDS011;18639;50.716;7.086;2023-04-15T12:02:29;2.58;;;1.25;;
32130;SDS011;18639;50.716;7.086;2023-04-15T12:05:03;1.35;;;1.00;;
32130;SDS011;18639;50.716;7.086;2023-04-15T12:07:33;1.48;;;1.13;;
32130;SDS011;18639;50.716;7.086;2023-04-15T12:09:58;1.60;;;1.10;;
32130;SDS011;18639;50.716;7.086;2023-04-15T12:12:27;2.72;;;1.15;;
32130;SDS011;18639;50.716;7.086;2023-04-15T12:14:55;1.48;;;1.15;;
32130;SDS011;18639;50.716;7.086;2023-04-15T12:17:21;2.78;;;1.50;;
32130;SDS011;18639;50.716;7.086;2023-04-15T12:19:48;3.00;;;1.50;;
32130;SDS011;18639;50.716;7.086;2023-04-15T12:22:15;2.78;;;1.30;;
32130;SDS011;18639;50.716;7.086;2023-04-15T12:24:41;1.77;;;1.35;;
32130;SDS011;18639;50.716;7.086;2023-04-15T12:27:13;1.08;;;0.95;;
32130;SDS011;18639;50.716;7.086;2023-04-15T12:29:40;2.20;;;1.20;;
32130;SDS011;18639;50.716;7.086;2023-04-15T12:32:14;1.90;;;1.20;;
32130;SDS011;18639;50.716;7.086;2023-04-15T12:34:42;2.13;;;1.25;;
32130;SDS011;18639;50.716;7.086;2023-04-15T12:37:10;1.60;;;1.05;;
32130;SDS011;18639;50.716;7.086;2023-04-15T12:39:37;1.55;;;1.00;;
32130;SDS011;18639;50.716;7.086;2023-04-15T12:42:04;2.30;;;1.17;;
32130;SDS011;18639;50.716;7.086;2023-04-15T12:44:31;1.42;;;1.10;;
32130;SDS011;18639;50.716;7.086;2023-04-15T12:46:57;1.90;;;1.30;;
32130;SDS011;18639;50.716;7.086;2023-04-15T12:49:22;2.80;;;1.60;;
32130;SDS011;18639;50.716;7.086;2023-04-15T12:51:48;1.77;;;1.10;;
32130;SDS011;18639;50.716;7.086;2023-04-15T12:54:15;2.28;;;1.38;;
32130;SDS011;18639;50.716;7.086;2023-04-15T12:56:42;1.77;;;1.10;;
32130;SDS011;18639;50.716;7.086;2023-04-15T12:59:08;2.47;;;1.30;;
32130;SDS011;18639;50.716;7.086;2023-04-15T13:01:33;3.70;;;1.30;;
32130;SDS011;18639;50.716;7.086;2023-04-15T13:03:58;3.10;;;1.60;;
32130;SDS011;18639;50.716;7.086;2023-04-15T13:06:24;1.80;;;1.40;;
32130;SDS011;18639;50.716;7.086;2023-04-15T13:08:49;3.35;;;1.90;;
32130;SDS011;18639;50.716;7.086;2023-04-15T13:11:15;3.25;;;1.60;;
32130;SDS011;18639;50.716;7.086;2023-04-15T13:13:41;1.95;;;1.38;;
32130;SDS011;18639;50.716;7.086;2023-04-15T13:16:06;3.80;;;1.75;;
32130;SDS011;18639;50.716;7.086;2023-04-15T13:18:32;3.80;;;1.83;;
32130;SDS011;18639;50.716;7.086;2023-04-15T13:20:58;3.28;;;1.40;;
32130;SDS011;18639;50.716;7.086;2023-04-15T13:23:24;4.35;;;1.63;;
32130;SDS011;18639;50.716;7.086;2023-04-15T13:25:49;3.35;;;1.88;;
32130;SDS011;18639;50.716;7.086;2023-04-15T13:28:15;2.95;;;1.70;;
32130;SDS011;18639;50.716;7.086;2023-04-15T13:30:41;3.13;;;1.77;;
32130;SDS011;18639;50.716;7.086;2023-04-15T13:33:08;2.92;;;1.50;;
32130;SDS011;18639;50.716;7.086;2023-04-15T13:35:33;2.95;;;1.60;;
32130;SDS011;18639;50.716;7.086;2023-04-15T13:37:59;2.22;;;1.70;;
32130;SDS011;18639;50.716;7.086;2023-04-15T13:40:39;3.13;;;1.50;;
32130;SDS011;18639;50.716;7.086;2023-04-15T13:43:05;2.17;;;1.17;;
32130;SDS011;18639;50.716;7.086;2023-04-15T13:45:30;2.83;;;1.88;;
32130;SDS011;18639;50.716;7.086;2023-04-15T13:47:56;2.22;;;1.20;;
32130;SDS011;18639;50.716;7.086;2023-04-15T13:50:21;2.13;;;1.15;;
32130;SDS011;18639;50.716;7.086;2023-04-15T13:52:47;2.63;;;1.30;;
32130;SDS011;18639;50.716;7.086;2023-04-15T13:55:12;4.00;;;1.75;;
32130;SDS011;18639;50.716;7.086;2023-04-15T13:57:38;3.00;;;1.42;;
32130;SDS011;18639;50.716;7.086;2023-04-15T14:00:03;2.20;;;1.20;;
32130;SDS011;18639;50.716;7.086;2023-04-15T14:02:30;2.22;;;1.30;;
32130;SDS011;18639;50.716;7.086;2023-04-15T14:04:55;1.88;;;1.27;;
32130;SDS011;18639;50.716;7.086;2023-04-15T14:07:20;2.42;;;1.33;;
32130;SDS011;18639;50.716;7.086;2023-04-15T14:09:46;8.77;;;1.73;;
32130;SDS011;18639;50.716;7.086;2023-04-15T14:12:12;4.60;;;1.83;;
32130;SDS011;18639;50.716;7.086;2023-04-15T14:14:37;3.15;;;2.03;;
32130;SDS011;18639;50.716;7.086;2023-04-15T14:17:03;4.63;;;2.35;;
32130;SDS011;18639;50.716;7.086;2023-04-15T14:19:29;4.53;;;2.42;;
32130;SDS011;18639;50.716;7.086;2023-04-15T14:21:58;5.35;;;2.33;;
32130;SDS011;18639;50.716;7.086;2023-04-15T14:24:24;4.45;;;2.47;;
32130;SDS011;18639;50.716;7.086;2023-04-15T14:26:49;5.45;;;2.40;;
32130;SDS011;18639;50.716;7.086;2023-04-15T14:29:15;4.25;;;2.28;;
32130;SDS011;18639;50.716;7.086;2023-04-15T14:31:40;4.97;;;2.20;;
32130;SDS011;18639;50.716;7.086;2023-04-15T14:34:06;4.40;;;2.63;;
32130;SDS011;18639;50.716;7.086;2023-04-15T14:36:31;4.43;;;2.30;;
32130;SDS011;18639;50.716;7.086;2023-04-15T14:38:57;2.83;;;1.83;;
32130;SDS011;18639;50.716;7.086;2023-04-15T14:41:23;3.63;;;2.10;;
32130;SDS011;18639;50.716;7.086;2023-04-15T14:43:48;4.05;;;2.00;;
32130;SDS011;18639;50.716;7.086;2023-04-15T14:46:13;2.78;;;1.30;;
32130;SDS011;18639;50.716;7.086;2023-04-15T14:48:39;4.55;;;1.42;;
32130;SDS011;18639;50.716;7.086;2023-04-15T14:51:05;4.53;;;1.67;;
32130;SDS011;18639;50.716;7.086;2023-04-15T14:53:30;1.70;;;1.02;;
32130;SDS011;18639;50.716;7.086;2023-04-15T14:55:55;3.53;;;1.35;;